Time;durP1;ratioP1;P1;durP2;ratioP2;P2;SDS_P1;SDS_P2;PMS_P1;PMS_P2;Temp;Humidity;BMP_temperature;BMP_pressure;BME280_temperature;BME280_humidity;BME280_pressure;Samples;Min_cycle;Max_cycle;Signal;HPM_P1;HPM_P2
2022/08/31 00:06:17;;;;;;;2.90;1.30;;;;;;;;;;110387;1255;35489;-32
2022/08/31 00:08:48;;;;;;;3.30;1.00;;;;;;;;;;110448;1255;34360;-32
2022/08/31 00:11:26;;;;;;;2.70;1.10;;;;;;;;;;110402;1255;33291;-32
2022/08/31 00:14:06;;;;;;;4.50;1.20;;;;;;;;;;110391;1254;35064;-33
2022/08/31 00:16:39;;;;;;;29.60;4.70;;;;;;;;;;110416;1247;34776;-33
2022/08/31 00:19:10;;;;;;;17.10;4.30;;;;;;;;;;110411;1248;35311;-33
2022/08/31 00:21:41;;;;;;;16.70;3.80;;;;;;;;;;110407;1255;35631;-33
2022/08/31 00:24:13;;;;;;;17.20;3.60;;;;;;;;;;110407;1247;33272;-33
2022/08/31 00:26:44;;;;;;;14.20;3.20;;;;;;;;;;110428;1255;35065;-33
2022/08/31 00:29:15;;;;;;;16.00;2.80;;;;;;;;;;110404;1247;35139;-33
2022/08/31 00:31:45;;;;;;;14.20;3.20;;;;;;;;;;110417;1256;34098;-33
2022/08/31 00:34:16;;;;;;;12.90;2.60;;;;;;;;;;110421;1255;35128;-33
2022/08/31 00:36:47;;;;;;;10.30;2.40;;;;;;;;;;110431;1255;35105;-33
2022/08/31 00:39:18;;;;;;;8.80;2.30;;;;;;;;;;110472;1255;35669;-33
2022/08/31 00:41:52;;;;;;;9.90;2.10;;;;;;;;;;110472;1256;35601;-33
2022/08/31 00:44:23;;;;;;;10.80;2.20;;;;;;;;;;110468;1247;35159;-33
2022/08/31 00:46:55;;;;;;;10.40;2.70;;;;;;;;;;110457;1255;34022;-33
2022/08/31 00:49:28;;;;;;;7.00;1.90;;;;;;;;;;110478;1255;35406;-33
2022/08/31 00:52:03;;;;;;;6.00;1.80;;;;;;;;;;110463;1256;33199;-33
2022/08/31 00:54:41;;;;;;;10.00;1.90;;;;;;;;;;110480;1247;33431;-33
2022/08/31 00:57:13;;;;;;;8.50;1.90;;;;;;;;;;110493;1250;34928;-33
2022/08/31 00:59:47;;;;;;;6.00;1.70;;;;;;;;;;110429;1255;35579;-33
2022/08/31 01:02:18;;;;;;;8.70;2.30;;;;;;;;;;110469;1255;35888;-33
2022/08/31 01:04:49;;;;;;;5.60;1.60;;;;;;;;;;110453;1249;36086;-33
2022/08/31 01:07:20;;;;;;;6.30;1.60;;;;;;;;;;110455;1255;35197;-32
2022/08/31 01:09:51;;;;;;;4.90;1.80;;;;;;;;;;110469;1255;35346;-33
2022/08/31 01:12:21;;;;;;;5.40;1.50;;;;;;;;;;110480;1256;33277;-33
2022/08/31 01:14:52;;;;;;;4.70;1.40;;;;;;;;;;110466;1256;34879;-33
2022/08/31 01:17:23;;;;;;;4.90;1.50;;;;;;;;;;110439;1250;35035;-33
2022/08/31 01:19:59;;;;;;;5.30;1.50;;;;;;;;;;110461;1255;35169;-33
2022/08/31 01:22:36;;;;;;;5.50;1.70;;;;;;;;;;110459;1255;33256;-33
2022/08/31 01:25:08;;;;;;;5.30;1.20;;;;;;;;;;110444;1255;34988;-33
2022/08/31 01:27:38;;;;;;;5.20;1.50;;;;;;;;;;110422;1255;35341;-33
2022/08/31 01:30:20;;;;;;;5.80;1.50;;;;;;;;;;110447;1248;35228;-33
2022/08/31 01:32:51;;;;;;;4.40;1.30;;;;;;;;;;110401;1247;35065;-33
2022/08/31 01:35:22;;;;;;;7.10;1.40;;;;;;;;;;110439;1255;35002;-33
2022/08/31 01:37:53;;;;;;;4.70;1.40;;;;;;;;;;110439;1255;35221;-33
2022/08/31 01:40:30;;;;;;;3.40;1.10;;;;;;;;;;110424;1255;35134;-33
2022/08/31 01:43:00;;;;;;;4.30;1.10;;;;;;;;;;110446;1247;35730;-33
2022/08/31 01:45:31;;;;;;;4.20;1.40;;;;;;;;;;110454;1249;33781;-33
2022/08/31 01:48:02;;;;;;;4.70;1.40;;;;;;;;;;110466;1255;35358;-33
2022/08/31 01:50:34;;;;;;;3.70;1.10;;;;;;;;;;110465;1255;35721;-33
2022/08/31 01:53:05;;;;;;;4.30;1.60;;;;;;;;;;110481;1255;34885;-33
2022/08/31 01:55:42;;;;;;;3.50;1.50;;;;;;;;;;110467;1249;34977;-33
2022/08/31 01:58:13;;;;;;;3.80;1.20;;;;;;;;;;110486;1247;35335;-33
2022/08/31 02:00:45;;;;;;;3.20;1.20;;;;;;;;;;110451;1247;35356;-33
2022/08/31 02:03:16;;;;;;;4.30;1.20;;;;;;;;;;110466;1255;33689;-33
2022/08/31 02:05:46;;;;;;;4.20;1.40;;;;;;;;;;110406;1250;35106;-33
2022/08/31 02:08:18;;;;;;;3.60;1.20;;;;;;;;;;110483;1255;33926;-33
2022/08/31 02:10:49;;;;;;;3.90;1.20;;;;;;;;;;110466;1247;35216;-33
2022/08/31 02:13:20;;;;;;;3.00;1.10;;;;;;;;;;110431;1255;35173;-33
2022/08/31 02:15:52;;;;;;;4.00;1.20;;;;;;;;;;110459;1255;35832;-33
2022/08/31 02:18:24;;;;;;;3.40;1.30;;;;;;;;;;110463;1255;35429;-33
2022/08/31 02:20:55;;;;;;;2.70;1.00;;;;;;;;;;110477;1251;32544;-33
2022/08/31 02:23:26;;;;;;;3.30;1.00;;;;;;;;;;110492;1248;35041;-33
2022/08/31 02:25:57;;;;;;;3.70;1.30;;;;;;;;;;110461;1247;35364;-32
2022/08/31 02:28:28;;;;;;;3.70;1.20;;;;;;;;;;110467;1255;35733;-33
2022/08/31 02:30:59;;;;;;;3.30;1.10;;;;;;;;;;110463;1255;34847;-33
2022/08/31 02:33:29;;;;;;;3.90;1.30;;;;;;;;;;110450;1256;35461;-33
2022/08/31 02:36:00;;;;;;;3.70;1.20;;;;;;;;;;110468;1250;35096;-33
2022/08/31 02:38:32;;;;;;;2.30;0.90;;;;;;;;;;110448;1255;35006;-33
2022/08/31 02:41:05;;;;;;;3.30;1.30;;;;;;;;;;110428;1255;34159;-33
2022/08/31 02:43:36;;;;;;;3.10;1.00;;;;;;;;;;110458;1255;35300;-33
2022/08/31 02:46:08;;;;;;;2.90;1.20;;;;;;;;;;110494;1247;35679;-33
2022/08/31 02:48:38;;;;;;;2.80;1.00;;;;;;;;;;110460;1247;34998;-33
2022/08/31 02:51:10;;;;;;;3.10;1.20;;;;;;;;;;110456;1248;35364;-33
2022/08/31 02:53:41;;;;;;;2.70;1.00;;;;;;;;;;110456;1256;35227;-33
2022/08/31 02:56:13;;;;;;;2.80;1.10;;;;;;;;;;110449;1254;33217;-33
2022/08/31 02:58:44;;;;;;;3.20;1.00;;;;;;;;;;110464;1249;35449;-33
2022/08/31 03:01:15;;;;;;;2.30;1.10;;;;;;;;;;110464;1255;35741;-33
2022/08/31 03:03:45;;;;;;;3.90;1.20;;;;;;;;;;110474;1256;33194;-33
2022/08/31 03:06:17;;;;;;;3.70;1.30;;;;;;;;;;110463;1248;34233;-33
2022/08/31 03:08:49;;;;;;;2.80;1.10;;;;;;;;;;110466;1256;34171;-33
2022/08/31 03:11:20;;;;;;;3.70;1.10;;;;;;;;;;110439;1255;34478;-34
2022/08/31 03:13:52;;;;;;;3.70;1.20;;;;;;;;;;110429;1255;33274;-34
2022/08/31 03:16:26;;;;;;;3.90;1.00;;;;;;;;;;110479;1247;34331;-34
2022/08/31 03:18:57;;;;;;;3.20;1.00;;;;;;;;;;110473;1255;34291;-35
2022/08/31 03:21:27;;;;;;;3.70;1.10;;;;;;;;;;110441;1256;33258;-34
2022/08/31 03:23:58;;;;;;;3.30;1.20;;;;;;;;;;110445;1255;33282;-34
2022/08/31 03:26:29;;;;;;;3.10;1.20;;;;;;;;;;110476;1247;35332;-34
2022/08/31 03:29:01;;;;;;;3.30;1.00;;;;;;;;;;110470;1255;35010;-34
2022/08/31 03:31:32;;;;;;;2.80;1.30;;;;;;;;;;110450;1255;34860;-34
2022/08/31 03:34:02;;;;;;;2.30;1.00;;;;;;;;;;110497;1247;34870;-34
2022/08/31 03:36:33;;;;;;;3.00;1.20;;;;;;;;;;110459;1250;35055;-34
2022/08/31 03:39:04;;;;;;;2.70;1.00;;;;;;;;;;110471;1249;33906;-34
2022/08/31 03:41:35;;;;;;;2.30;1.00;;;;;;;;;;110478;1247;33288;-34
2022/08/31 03:44:06;;;;;;;3.60;1.20;;;;;;;;;;110490;1255;34192;-34
2022/08/31 03:46:43;;;;;;;2.90;1.10;;;;;;;;;;110460;1255;35192;-34
2022/08/31 03:49:13;;;;;;;2.30;1.00;;;;;;;;;;110464;1255;33214;-34
2022/08/31 03:51:44;;;;;;;3.40;1.10;;;;;;;;;;110448;1250;34904;-34
2022/08/31 03:54:17;;;;;;;3.20;1.00;;;;;;;;;;110484;1250;34893;-34
2022/08/31 03:56:49;;;;;;;2.90;1.20;;;;;;;;;;110470;1255;35377;-34
2022/08/31 03:59:20;;;;;;;2.70;1.20;;;;;;;;;;110478;1255;33278;-34
2022/08/31 04:01:51;;;;;;;2.80;1.20;;;;;;;;;;110481;1247;33650;-34
2022/08/31 04:04:22;;;;;;;3.40;1.30;;;;;;;;;;110461;1248;34588;-34
2022/08/31 04:06:52;;;;;;;2.90;1.10;;;;;;;;;;110455;1255;35194;-34
2022/08/31 04:09:23;;;;;;;3.60;1.20;;;;;;;;;;110469;1255;35324;-34
2022/08/31 04:11:56;;;;;;;4.00;1.30;;;;;;;;;;110473;1254;35026;-34
2022/08/31 04:14:31;;;;;;;3.20;1.10;;;;;;;;;;110472;1250;35476;-34
2022/08/31 04:17:01;;;;;;;2.90;1.10;;;;;;;;;;110483;1247;35316;-33
2022/08/31 04:19:32;;;;;;;3.40;1.00;;;;;;;;;;110475;1249;33316;-33
2022/08/31 04:22:04;;;;;;;3.10;1.00;;;;;;;;;;110454;1255;34920;-33
2022/08/31 04:24:35;;;;;;;2.90;1.10;;;;;;;;;;110472;1255;35107;-33
2022/08/31 04:27:06;;;;;;;2.70;1.00;;;;;;;;;;110357;1250;34999;-33
2022/08/31 04:29:38;;;;;;;2.50;1.00;;;;;;;;;;110459;1250;34969;-33
2022/08/31 04:32:09;;;;;;;2.70;1.10;;;;;;;;;;110461;1255;35345;-33
2022/08/31 04:34:40;;;;;;;3.30;1.20;;;;;;;;;;110458;1255;35198;-33
2022/08/31 04:37:13;;;;;;;3.20;1.30;;;;;;;;;;110472;1247;33263;-33
2022/08/31 04:39:44;;;;;;;3.10;1.30;;;;;;;;;;110453;1250;34869;-33
2022/08/31 04:42:15;;;;;;;3.10;1.10;;;;;;;;;;110465;1256;34914;-33
2022/08/31 04:44:45;;;;;;;3.00;1.10;;;;;;;;;;110472;1250;35743;-31
2022/08/31 04:47:16;;;;;;;3.10;1.30;;;;;;;;;;110458;1254;35401;-33
2022/08/31 04:49:47;;;;;;;2.80;1.10;;;;;;;;;;110452;1255;34907;-33
2022/08/31 04:52:21;;;;;;;3.40;1.00;;;;;;;;;;110476;1256;35119;-33
2022/08/31 04:54:52;;;;;;;3.10;1.20;;;;;;;;;;110460;1247;34482;-33
2022/08/31 04:57:23;;;;;;;2.90;1.10;;;;;;;;;;110473;1256;35152;-33
2022/08/31 04:59:53;;;;;;;2.80;1.10;;;;;;;;;;110468;1255;34709;-33
2022/08/31 05:02:24;;;;;;;2.80;1.30;;;;;;;;;;110461;1255;35631;-33
2022/08/31 05:04:55;;;;;;;3.50;1.10;;;;;;;;;;110477;1250;35194;-33
2022/08/31 05:07:26;;;;;;;2.80;0.90;;;;;;;;;;110435;1255;34949;-33
2022/08/31 05:09:57;;;;;;;3.10;1.20;;;;;;;;;;110412;1250;34401;-33
2022/08/31 05:12:27;;;;;;;3.30;1.20;;;;;;;;;;109945;1255;618668;-33
2022/08/31 05:14:58;;;;;;;2.80;1.00;;;;;;;;;;110403;1255;34982;-32
2022/08/31 05:17:29;;;;;;;2.40;1.00;;;;;;;;;;110382;1250;35068;-33
2022/08/31 05:20:00;;;;;;;3.90;1.10;;;;;;;;;;110476;1255;35243;-33
2022/08/31 05:22:31;;;;;;;2.70;1.10;;;;;;;;;;110493;1248;34299;-33
2022/08/31 05:25:05;;;;;;;4.10;1.30;;;;;;;;;;110481;1256;35099;-32
2022/08/31 05:27:37;;;;;;;2.70;1.00;;;;;;;;;;110471;1255;35170;-32
2022/08/31 05:30:10;;;;;;;2.10;1.00;;;;;;;;;;110440;1255;35355;-32
2022/08/31 05:32:39;;;;;;;;;;;;;;;;;;110501;1247;35456;-32
2022/08/31 05:35:11;;;;;;;3.00;1.20;;;;;;;;;;110478;1250;34499;-32
2022/08/31 05:37:43;;;;;;;2.90;1.20;;;;;;;;;;110492;1255;34918;-32
2022/08/31 05:40:14;;;;;;;3.50;1.20;;;;;;;;;;110449;1256;35397;-32
2022/08/31 05:42:45;;;;;;;2.90;1.20;;;;;;;;;;110476;1256;35843;-32
2022/08/31 05:45:17;;;;;;;2.50;1.00;;;;;;;;;;110486;1255;34291;-32
2022/08/31 05:47:48;;;;;;;2.50;1.10;;;;;;;;;;110523;1247;34299;-34
2022/08/31 05:50:18;;;;;;;3.30;1.10;;;;;;;;;;110481;1247;34940;-33
2022/08/31 05:52:49;;;;;;;2.20;0.90;;;;;;;;;;110476;1255;34865;-33
2022/08/31 05:55:20;;;;;;;3.40;1.10;;;;;;;;;;110475;1256;34246;-33
2022/08/31 05:57:51;;;;;;;3.20;1.00;;;;;;;;;;110486;1254;34688;-32
2022/08/31 06:00:25;;;;;;;2.40;1.00;;;;;;;;;;110470;1251;33271;-32
2022/08/31 06:02:56;;;;;;;2.50;1.10;;;;;;;;;;110459;1256;34907;-34
2022/08/31 06:05:29;;;;;;;2.70;1.10;;;;;;;;;;110480;1247;34817;-34
2022/08/31 06:08:00;;;;;;;3.10;1.20;;;;;;;;;;110489;1247;35273;-33
2022/08/31 06:10:31;;;;;;;3.30;0.90;;;;;;;;;;110495;1256;35070;-33
2022/08/31 06:13:04;;;;;;;2.10;0.80;;;;;;;;;;110450;1250;35461;-33
2022/08/31 06:15:35;;;;;;;2.60;1.10;;;;;;;;;;110472;1255;35329;-33
2022/08/31 06:18:08;;;;;;;3.00;1.20;;;;;;;;;;110489;1255;35323;-35
2022/08/31 06:20:39;;;;;;;2.50;1.00;;;;;;;;;;110521;1250;34953;-34
2022/08/31 06:23:10;;;;;;;2.20;0.80;;;;;;;;;;110658;1247;33663;-34
2022/08/31 06:25:43;;;;;;;2.70;1.10;;;;;;;;;;110384;1255;35195;-34
2022/08/31 06:28:15;;;;;;;3.10;1.20;;;;;;;;;;110483;1255;35795;-34
2022/08/31 06:30:46;;;;;;;3.90;1.30;;;;;;;;;;110444;1255;35430;-35
2022/08/31 06:33:16;;;;;;;4.40;1.50;;;;;;;;;;110471;1250;34955;-33
2022/08/31 06:35:47;;;;;;;6.80;1.60;;;;;;;;;;110486;1249;35103;-33
2022/08/31 06:38:18;;;;;;;4.70;1.40;;;;;;;;;;110484;1255;34988;-34
2022/08/31 06:40:49;;;;;;;4.80;1.40;;;;;;;;;;110461;1256;34101;-34
2022/08/31 06:43:20;;;;;;;5.00;1.30;;;;;;;;;;110477;1256;34370;-34
2022/08/31 06:45:51;;;;;;;5.80;1.50;;;;;;;;;;110478;1247;33281;-34
2022/08/31 06:48:22;;;;;;;4.70;1.90;;;;;;;;;;110485;1247;35511;-34
2022/08/31 06:50:58;;;;;;;5.30;1.50;;;;;;;;;;110459;1247;34725;-34
2022/08/31 06:53:29;;;;;;;5.50;1.30;;;;;;;;;;110437;1255;35415;-35
2022/08/31 06:56:04;;;;;;;5.30;1.30;;;;;;;;;;110468;1256;35593;-34
2022/08/31 06:58:35;;;;;;;4.30;1.50;;;;;;;;;;110487;1247;35505;-34
2022/08/31 07:01:10;;;;;;;4.50;1.50;;;;;;;;;;110496;1250;34963;-34
2022/08/31 07:03:43;;;;;;;4.60;1.40;;;;;;;;;;110444;1255;32958;-33
2022/08/31 07:06:16;;;;;;;5.30;1.50;;;;;;;;;;110500;1255;34153;-33
2022/08/31 07:08:50;;;;;;;4.50;1.70;;;;;;;;;;110469;1256;35210;-33
2022/08/31 07:11:23;;;;;;;3.20;1.10;;;;;;;;;;110442;1249;35194;-33
2022/08/31 07:13:56;;;;;;;5.50;1.70;;;;;;;;;;110466;1249;34396;-33
2022/08/31 07:16:28;;;;;;;5.10;1.40;;;;;;;;;;110437;1255;35663;-33
2022/08/31 07:19:06;;;;;;;6.60;1.50;;;;;;;;;;110466;1257;35046;-33
2022/08/31 07:21:41;;;;;;;5.00;1.20;;;;;;;;;;110468;1255;34920;-33
2022/08/31 07:24:13;;;;;;;5.60;1.70;;;;;;;;;;110445;1251;33218;-34
2022/08/31 07:26:53;;;;;;;5.10;1.40;;;;;;;;;;110481;1247;33682;-33
2022/08/31 07:29:24;;;;;;;4.80;1.20;;;;;;;;;;110453;1255;34382;-34
2022/08/31 07:31:58;;;;;;;4.20;1.20;;;;;;;;;;110458;1256;34229;-34
2022/08/31 07:34:32;;;;;;;4.50;1.50;;;;;;;;;;110482;1255;35253;-33
2022/08/31 07:42:45;;;;;;;3.30;1.00;;;;;;;;;;110344;1256;34852;-34
2022/08/31 07:45:22;;;;;;;4.30;1.40;;;;;;;;;;110362;1256;35029;-33
2022/08/31 07:47:58;;;;;;;3.00;1.20;;;;;;;;;;110422;1247;35765;-33
2022/08/31 07:50:30;;;;;;;4.70;1.10;;;;;;;;;;110435;1247;34380;-33
2022/08/31 07:53:02;;;;;;;2.60;0.90;;;;;;;;;;110458;1247;33809;-32
2022/08/31 07:55:33;;;;;;;4.80;1.70;;;;;;;;;;110453;1255;34436;-32
2022/08/31 07:58:05;;;;;;;2.40;1.00;;;;;;;;;;110352;1256;35246;-33
2022/08/31 08:00:42;;;;;;;4.60;1.00;;;;;;;;;;110337;1256;35032;-33
2022/08/31 08:03:12;;;;;;;4.00;1.10;;;;;;;;;;110337;1256;34937;-33
2022/08/31 08:05:43;;;;;;;4.20;1.40;;;;;;;;;;110318;1250;33538;-32
2022/08/31 08:08:15;;;;;;;3.60;1.10;;;;;;;;;;110364;1250;35084;-32
2022/08/31 08:10:47;;;;;;;3.90;1.20;;;;;;;;;;110436;1256;34911;-32
2022/08/31 08:13:22;;;;;;;4.10;1.10;;;;;;;;;;110450;1256;35152;-33
2022/08/31 08:15:53;;;;;;;3.20;1.00;;;;;;;;;;110617;1247;34823;-34
2022/08/31 08:18:25;;;;;;;4.10;1.00;;;;;;;;;;110531;1247;34215;-33
2022/08/31 08:20:55;;;;;;;;;;;;;;;;;;110507;1250;35079;-33
2022/08/31 08:23:26;;;;;;;4.20;1.20;;;;;;;;;;110471;1255;34557;-33
2022/08/31 08:25:59;;;;;;;5.30;1.30;;;;;;;;;;110468;1255;35008;-33
2022/08/31 08:28:31;;;;;;;3.70;1.00;;;;;;;;;;110458;1249;34255;-33
2022/08/31 08:31:02;;;;;;;4.60;1.10;;;;;;;;;;110447;1255;35372;-33
2022/08/31 08:33:35;;;;;;;2.90;0.90;;;;;;;;;;110399;1247;35149;-33
2022/08/31 08:36:07;;;;;;;2.70;1.00;;;;;;;;;;110452;1256;34488;-33
2022/08/31 08:38:46;;;;;;;5.50;1.00;;;;;;;;;;110443;1256;35087;-33
2022/08/31 08:41:19;;;;;;;4.50;1.20;;;;;;;;;;110482;1257;35288;-33
2022/08/31 08:43:52;;;;;;;3.10;1.10;;;;;;;;;;110469;1247;34382;-33
2022/08/31 08:46:24;;;;;;;;;;;;;;;;;;110461;1255;35283;-32
2022/08/31 08:48:59;;;;;;;3.00;0.80;;;;;;;;;;110410;1254;35554;-33
2022/08/31 08:51:38;;;;;;;2.80;0.80;;;;;;;;;;110415;1256;35367;-33
2022/08/31 08:54:13;;;;;;;3.90;0.90;;;;;;;;;;110417;1248;35024;-34
2022/08/31 08:56:47;;;;;;;3.30;1.00;;;;;;;;;;110417;1248;35036;-34
2022/08/31 08:59:18;;;;;;;3.00;0.90;;;;;;;;;;110453;1248;35065;-34
2022/08/31 09:02:00;;;;;;;2.50;0.90;;;;;;;;;;110457;1255;35622;-34
2022/08/31 09:04:48;;;;;;;3.30;1.00;;;;;;;;;;110460;1255;35647;-34
2022/08/31 09:07:29;;;;;;;2.90;1.00;;;;;;;;;;110479;1247;34015;-34
2022/08/31 09:10:05;;;;;;;2.90;1.10;;;;;;;;;;110459;1247;34905;-34
2022/08/31 09:12:43;;;;;;;3.00;0.70;;;;;;;;;;110479;1248;34850;-34
2022/08/31 09:15:34;;;;;;;3.40;0.90;;;;;;;;;;110470;1255;35042;-34
2022/08/31 09:18:13;;;;;;;2.90;0.90;;;;;;;;;;110443;1255;35568;-34
2022/08/31 09:20:58;;;;;;;3.40;0.90;;;;;;;;;;110469;1255;35384;-34
2022/08/31 09:23:32;;;;;;;3.90;0.80;;;;;;;;;;110458;1255;35609;-34
2022/08/31 09:26:03;;;;;;;3.30;0.90;;;;;;;;;;110459;1255;36349;-33
2022/08/31 09:28:43;;;;;;;2.50;0.90;;;;;;;;;;110441;1257;33276;-33
2022/08/31 09:31:31;;;;;;;2.80;0.90;;;;;;;;;;110470;1257;35513;-34
2022/08/31 09:34:03;;;;;;;2.30;0.70;;;;;;;;;;110458;1255;34972;-34
2022/08/31 09:36:39;;;;;;;3.10;0.90;;;;;;;;;;110453;1256;33233;-34
2022/08/31 09:39:29;;;;;;;3.10;0.80;;;;;;;;;;110456;1257;35057;-35
2022/08/31 09:42:17;;;;;;;2.10;0.70;;;;;;;;;;110441;1256;35033;-34
2022/08/31 09:44:51;;;;;;;2.10;0.80;;;;;;;;;;110470;1257;35083;-34
2022/08/31 09:47:50;;;;;;;3.40;1.00;;;;;;;;;;110467;1257;33480;-33
2022/08/31 09:50:38;;;;;;;2.80;0.90;;;;;;;;;;110459;1248;35270;-33
2022/08/31 09:56:14;;;;;;;3.80;1.00;;;;;;;;;;110428;1257;35211;-34
2022/08/31 09:58:48;;;;;;;5.70;0.80;;;;;;;;;;110393;1256;35189;-33
2022/08/31 10:01:29;;;;;;;2.90;1.00;;;;;;;;;;110453;1247;35480;-36
2022/08/31 10:04:19;;;;;;;3.60;1.00;;;;;;;;;;110406;1256;35470;-36
2022/08/31 10:07:00;;;;;;;2.30;0.70;;;;;;;;;;110416;1247;34874;-36
2022/08/31 10:09:36;;;;;;;2.60;0.80;;;;;;;;;;110350;1247;35115;-35
2022/08/31 10:12:10;;;;;;;3.80;0.90;;;;;;;;;;110421;1254;35366;-35
2022/08/31 10:14:49;;;;;;;3.30;1.00;;;;;;;;;;110478;1256;35342;-35
2022/08/31 10:17:26;;;;;;;3.00;0.70;;;;;;;;;;110442;1248;35006;-34
2022/08/31 10:20:05;;;;;;;3.60;0.90;;;;;;;;;;110475;1257;35323;-34
2022/08/31 10:22:40;;;;;;;2.20;0.70;;;;;;;;;;110438;1257;35381;-33
2022/08/31 10:25:20;;;;;;;3.50;0.80;;;;;;;;;;110421;1256;35243;-33
2022/08/31 10:27:54;;;;;;;3.90;0.80;;;;;;;;;;110456;1257;34347;-32
2022/08/31 10:30:32;;;;;;;2.30;0.80;;;;;;;;;;110465;1257;35818;-34
2022/08/31 10:33:10;;;;;;;3.40;0.80;;;;;;;;;;110485;1255;35654;-34
2022/08/31 10:35:49;;;;;;;2.90;0.60;;;;;;;;;;110467;1248;34243;-34
2022/08/31 10:38:29;;;;;;;2.60;0.80;;;;;;;;;;110454;1256;35464;-34
2022/08/31 10:41:09;;;;;;;2.70;0.70;;;;;;;;;;110460;1251;35275;-35
2022/08/31 10:43:44;;;;;;;3.40;0.70;;;;;;;;;;110470;1257;35019;-34
2022/08/31 10:46:16;;;;;;;2.70;1.00;;;;;;;;;;110456;1249;33579;-34
2022/08/31 10:48:53;;;;;;;2.60;0.60;;;;;;;;;;110395;1256;35151;-34
2022/08/31 10:51:29;;;;;;;2.50;0.80;;;;;;;;;;110401;1248;35112;-35
2022/08/31 10:54:08;;;;;;;2.20;0.60;;;;;;;;;;110381;1256;35730;-34
2022/08/31 10:56:48;;;;;;;2.20;0.80;;;;;;;;;;110369;1251;35576;-34
2022/08/31 10:59:26;;;;;;;1.70;0.70;;;;;;;;;;110403;1257;34916;-34
2022/08/31 11:02:04;;;;;;;1.80;0.60;;;;;;;;;;110411;1256;35029;-35
2022/08/31 11:04:48;;;;;;;2.60;0.70;;;;;;;;;;110385;1256;35253;-32
2022/08/31 11:07:27;;;;;;;2.80;0.70;;;;;;;;;;110405;1251;34192;-34
2022/08/31 11:10:05;;;;;;;2.20;0.70;;;;;;;;;;110386;1256;35148;-34
2022/08/31 11:12:41;;;;;;;2.30;0.80;;;;;;;;;;110344;1256;35170;-35
2022/08/31 11:15:35;;;;;;;2.40;0.70;;;;;;;;;;110386;1251;34914;-35
2022/08/31 11:18:24;;;;;;;2.20;0.80;;;;;;;;;;110378;1254;35055;-35
2022/08/31 11:21:11;;;;;;;1.70;0.60;;;;;;;;;;110427;1248;35283;-35
2022/08/31 11:23:54;;;;;;;2.80;0.80;;;;;;;;;;110468;1253;35727;-35
2022/08/31 11:26:57;;;;;;;2.40;0.80;;;;;;;;;;110450;1254;34916;-33
2022/08/31 11:29:40;;;;;;;3.70;0.80;;;;;;;;;;110449;1248;33622;-33
2022/08/31 11:32:19;;;;;;;3.00;1.10;;;;;;;;;;110460;1254;35010;-33
2022/08/31 11:34:55;;;;;;;2.90;1.10;;;;;;;;;;110463;1247;35334;-33
2022/08/31 11:37:57;;;;;;;2.00;0.70;;;;;;;;;;110451;1254;33367;-33
2022/08/31 11:41:01;;;;;;;2.10;0.80;;;;;;;;;;110431;1253;35605;-33
2022/08/31 11:43:50;;;;;;;2.40;0.80;;;;;;;;;;110415;1248;34303;-33
2022/08/31 11:46:52;;;;;;;2.70;0.70;;;;;;;;;;110445;1257;34250;-33
2022/08/31 11:49:42;;;;;;;2.60;0.70;;;;;;;;;;110446;1252;35253;-33
2022/08/31 11:52:28;;;;;;;3.00;0.80;;;;;;;;;;110470;1248;35244;-33
2022/08/31 11:55:09;;;;;;;2.70;1.00;;;;;;;;;;110469;1256;35324;-33
2022/08/31 11:58:21;;;;;;;2.90;0.70;;;;;;;;;;110475;1256;34924;-33
2022/08/31 12:00:57;;;;;;;3.30;1.00;;;;;;;;;;110238;1257;35071;-33
2022/08/31 12:03:52;;;;;;;3.10;0.80;;;;;;;;;;110466;1254;35567;-33
2022/08/31 12:07:06;;;;;;;3.80;0.90;;;;;;;;;;110448;1248;35723;-33
2022/08/31 12:09:51;;;;;;;;;;;;;;;;;;110492;1256;35356;-34
2022/08/31 12:12:32;;;;;;;2.30;1.10;;;;;;;;;;110430;1257;34472;-34
2022/08/31 12:15:13;;;;;;;2.30;0.90;;;;;;;;;;110416;1257;34884;-34
2022/08/31 12:17:52;;;;;;;1.80;0.70;;;;;;;;;;110454;1248;35342;-34
2022/08/31 12:20:27;;;;;;;2.50;0.80;;;;;;;;;;110464;1252;35281;-34
2022/08/31 12:26:08;;;;;;;2.30;0.80;;;;;;;;;;110409;1256;33710;-34
2022/08/31 12:28:51;;;;;;;2.40;0.80;;;;;;;;;;110425;1256;34939;-33
2022/08/31 12:31:22;;;;;;;2.30;0.70;;;;;;;;;;110413;1248;35377;-33
2022/08/31 12:34:01;;;;;;;3.80;0.90;;;;;;;;;;110494;1248;33482;-33
2022/08/31 12:36:34;;;;;;;2.60;0.90;;;;;;;;;;110457;1251;35221;-32
2022/08/31 12:39:08;;;;;;;;;;;;;;;;;;110447;1257;34924;-35
2022/08/31 12:41:43;;;;;;;2.60;0.80;;;;;;;;;;110440;1257;34863;-34
2022/08/31 12:44:19;;;;;;;2.80;0.80;;;;;;;;;;110441;1257;34113;-34
2022/08/31 12:47:00;;;;;;;2.90;0.80;;;;;;;;;;110446;1247;35619;-34
2022/08/31 12:50:00;;;;;;;1.90;0.80;;;;;;;;;;110424;1251;33288;-34
2022/08/31 12:52:46;;;;;;;2.00;0.80;;;;;;;;;;110308;1256;35014;-34
2022/08/31 12:55:28;;;;;;;2.30;0.80;;;;;;;;;;110382;1257;33396;-34
2022/08/31 12:58:10;;;;;;;2.70;0.90;;;;;;;;;;110430;1251;33835;-34
2022/08/31 13:00:45;;;;;;;3.00;1.00;;;;;;;;;;110426;1251;35548;-33
2022/08/31 13:03:20;;;;;;;2.60;0.60;;;;;;;;;;110417;1251;35797;-33
2022/08/31 13:06:07;;;;;;;2.50;0.80;;;;;;;;;;110449;1256;34949;-33
2022/08/31 13:08:41;;;;;;;2.90;0.80;;;;;;;;;;110451;1257;35353;-35
2022/08/31 13:11:17;;;;;;;2.20;0.80;;;;;;;;;;110060;1253;495139;-34
2022/08/31 13:13:48;;;;;;;3.10;0.90;;;;;;;;;;110477;1248;35255;-35
2022/08/31 13:16:22;;;;;;;2.40;0.80;;;;;;;;;;110476;1248;33477;-35
2022/08/31 13:19:01;;;;;;;2.30;0.80;;;;;;;;;;110486;1256;35273;-36
2022/08/31 13:21:33;;;;;;;4.30;1.10;;;;;;;;;;110448;1257;35694;-34
2022/08/31 13:24:10;;;;;;;2.70;0.70;;;;;;;;;;110461;1255;34933;-34
2022/08/31 13:26:42;;;;;;;2.50;0.70;;;;;;;;;;110479;1256;35273;-32
2022/08/31 13:29:18;;;;;;;1.80;0.70;;;;;;;;;;110473;1256;34919;-33
2022/08/31 13:31:51;;;;;;;2.60;0.90;;;;;;;;;;110459;1256;35319;-34
2022/08/31 13:34:23;;;;;;;3.20;0.90;;;;;;;;;;110431;1256;34329;-35
2022/08/31 13:36:58;;;;;;;3.40;0.90;;;;;;;;;;110451;1257;34217;-33
2022/08/31 13:39:33;;;;;;;1.80;0.70;;;;;;;;;;110488;1252;34696;-34
2022/08/31 13:42:06;;;;;;;4.00;0.80;;;;;;;;;;110435;1248;35680;-34
2022/08/31 13:44:42;;;;;;;1.50;0.80;;;;;;;;;;110457;1256;34920;-34
2022/08/31 13:47:19;;;;;;;1.80;0.60;;;;;;;;;;110463;1257;35092;-32
2022/08/31 13:49:51;;;;;;;3.00;0.90;;;;;;;;;;110487;1256;35539;-34
2022/08/31 13:52:26;;;;;;;2.00;0.50;;;;;;;;;;110470;1247;35371;-34
2022/08/31 13:55:02;;;;;;;2.30;0.80;;;;;;;;;;110466;1248;33297;-33
2022/08/31 13:57:34;;;;;;;3.20;0.70;;;;;;;;;;110482;1257;35028;-32
2022/08/31 14:00:28;;;;;;;2.80;0.70;;;;;;;;;;110468;1257;35442;-33
2022/08/31 14:03:25;;;;;;;10.70;1.20;;;;;;;;;;110472;1248;35007;-33
2022/08/31 14:06:15;;;;;;;2.50;0.80;;;;;;;;;;110447;1257;35075;-33
2022/08/31 14:08:50;;;;;;;2.20;0.70;;;;;;;;;;110470;1257;35229;-32
2022/08/31 14:11:27;;;;;;;1.80;0.60;;;;;;;;;;110465;1257;35314;-35
2022/08/31 14:14:04;;;;;;;2.00;0.70;;;;;;;;;;110399;1256;35237;-35
2022/08/31 14:16:38;;;;;;;3.40;0.90;;;;;;;;;;110446;1248;33230;-35
2022/08/31 14:19:11;;;;;;;2.60;0.70;;;;;;;;;;110452;1248;34253;-35
2022/08/31 14:21:44;;;;;;;1.80;0.60;;;;;;;;;;110468;1248;35149;-35
2022/08/31 14:24:16;;;;;;;1.90;0.80;;;;;;;;;;110429;1255;35836;-35
2022/08/31 14:26:47;;;;;;;2.30;0.80;;;;;;;;;;110429;1256;34194;-35
2022/08/31 14:29:18;;;;;;;2.00;0.70;;;;;;;;;;110485;1254;34264;-35
2022/08/31 14:31:51;;;;;;;1.20;0.60;;;;;;;;;;110456;1248;35203;-35
2022/08/31 14:34:22;;;;;;;;;;;;;;;;;;110490;1255;35054;-35
2022/08/31 14:37:01;;;;;;;1.60;0.70;;;;;;;;;;110444;1256;33876;-35
2022/08/31 14:39:33;;;;;;;2.20;0.90;;;;;;;;;;110462;1256;35465;-35
2022/08/31 14:42:07;;;;;;;2.50;0.70;;;;;;;;;;110460;1256;34886;-35
2022/08/31 14:44:40;;;;;;;1.90;0.70;;;;;;;;;;110448;1248;35520;-35
2022/08/31 14:47:11;;;;;;;2.20;0.70;;;;;;;;;;110443;1248;33425;-35
2022/08/31 14:49:44;;;;;;;2.20;0.70;;;;;;;;;;110430;1256;35739;-35
2022/08/31 14:52:16;;;;;;;2.10;0.70;;;;;;;;;;110431;1257;35317;-35
2022/08/31 14:54:50;;;;;;;2.30;0.70;;;;;;;;;;110423;1248;35704;-35
2022/08/31 14:57:25;;;;;;;2.80;0.70;;;;;;;;;;110427;1254;35178;-35
2022/08/31 14:59:59;;;;;;;2.40;0.80;;;;;;;;;;110456;1255;35070;-35
2022/08/31 15:02:32;;;;;;;2.30;0.80;;;;;;;;;;110459;1248;34876;-35
2022/08/31 15:05:05;;;;;;;2.40;0.80;;;;;;;;;;110426;1248;33243;-35
2022/08/31 15:07:39;;;;;;;1.80;0.60;;;;;;;;;;110436;1256;33320;-34
2022/08/31 15:10:12;;;;;;;2.30;0.90;;;;;;;;;;110449;1248;35247;-34
2022/08/31 15:12:43;;;;;;;2.50;0.60;;;;;;;;;;110483;1248;34372;-35
2022/08/31 15:15:19;;;;;;;1.60;0.60;;;;;;;;;;110461;1255;35679;-35
2022/08/31 15:17:52;;;;;;;1.90;0.50;;;;;;;;;;110479;1248;33229;-35
2022/08/31 15:20:23;;;;;;;3.50;0.60;;;;;;;;;;110432;1251;35458;-35
2022/08/31 15:22:54;;;;;;;2.00;0.60;;;;;;;;;;110459;1248;35228;-35
2022/08/31 15:25:29;;;;;;;3.20;0.70;;;;;;;;;;110440;1248;35490;-35
2022/08/31 15:28:00;;;;;;;1.60;0.70;;;;;;;;;;110435;1255;35062;-35
2022/08/31 15:30:32;;;;;;;3.00;0.70;;;;;;;;;;110435;1256;35275;-35
2022/08/31 15:33:08;;;;;;;1.40;0.50;;;;;;;;;;110441;1251;34194;-35